.
WxDataArchive / Data Records for 2009-09-07
2009-09-06 September 2009 2009-09-08

Data Records for Monday, 07 September 2009

Time	Temp	Chill	HIndex	Humid	Dewpt	 Wind 	HiWind	WindDir	Rain 	Barom 
-----	----	-----	------	-----	-----	------	------	-------	-----	----- 
00:00	65.8	65.8	65.8	86	61.5	0	0	---	0.00	30.161 
00:05	65.8	65.8	65.8	87	61.8	0	0	---	0.00	30.161 
00:10	65.6	65.6	65.6	87	61.6	0	0	---	0.00	30.161 
00:15	65.5	65.5	65.5	87	61.5	0	0	---	0.00	30.157 
00:20	65.2	65.2	65.2	88	61.6	0	0	---	0.00	30.157 
00:25	65.2	65.2	65.2	88	61.6	0	0	---	0.00	30.157 
00:30	65.0	65.0	65.0	88	61.4	0	0	---	0.00	30.156 
00:35	65.0	65.0	65.0	88	61.4	0	0	---	0.00	30.156 
00:40	65.0	65.0	65.0	89	61.7	0	0	---	0.00	30.156 
00:45	65.0	65.0	65.0	89	61.7	0	0	---	0.00	30.156 
00:50	65.0	65.0	65.0	89	61.7	0	0	---	0.00	30.156 
00:55	65.0	65.0	65.0	89	61.7	0	0	---	0.01	30.156 
01:00	64.8	64.8	64.8	89	61.5	0	0	---	0.00	30.158 
01:05	64.8	64.8	64.8	89	61.5	0	0	---	0.00	30.158 
01:10	64.7	64.7	64.7	90	61.7	0	0	---	0.00	30.158 
01:15	64.7	64.7	64.7	90	61.7	0	0	---	0.00	30.154 
01:20	64.7	64.7	64.7	90	61.7	0	0	---	0.00	30.154 
01:25	64.7	64.7	64.7	91	62.0	0	0	---	0.00	30.154 
01:30	64.7	64.7	64.7	91	62.0	0	0	---	0.00	30.157 
01:35	64.7	64.7	64.7	91	62.0	0	0	---	0.00	30.157 
01:40	64.7	64.7	64.7	91	62.0	0	0	---	0.00	30.157 
01:45	64.5	64.5	64.5	92	62.1	0	0	---	0.01	30.159 
01:50	64.5	64.5	64.5	92	62.1	0	0	---	0.00	30.159 
01:55	64.3	64.3	64.3	92	61.9	0	0	---	0.00	30.159 
02:00	64.3	64.3	64.3	92	61.9	0	0	---	0.00	30.157 
02:05	64.2	64.2	64.2	92	61.8	0	0	---	0.01	30.157 
02:10	64.0	64.0	64.0	92	61.6	0	0	---	0.00	30.157 
02:15	63.9	63.9	63.9	92	61.5	0	0	---	0.01	30.151 
02:20	63.7	63.7	63.7	93	61.6	0	0	---	0.01	30.151 
02:25	63.5	63.5	63.5	93	61.4	0	1	112	0.00	30.151 
02:30	63.5	63.5	63.5	93	61.4	0	0	---	0.01	30.147 
02:35	63.4	63.4	63.4	93	61.3	0	0	---	0.00	30.147 
02:40	63.2	63.2	63.2	93	61.1	0	0	---	0.01	30.147 
02:45	63.2	63.2	63.2	94	61.4	0	0	---	0.00	30.144 
02:50	63.1	63.1	63.1	94	61.3	0	1	112	0.01	30.144 
02:55	62.9	62.9	62.9	94	61.1	0	1	112	0.00	30.144 
03:00	62.6	62.6	62.6	94	60.8	0	1	112	0.00	30.139 
03:05	62.4	62.4	62.4	94	60.6	0	1	112	0.00	30.139 
03:10	62.4	62.4	62.4	94	60.6	0	0	---	0.00	30.139 
03:15	62.3	62.3	62.3	94	60.5	0	0	---	0.00	30.132 
03:20	62.3	62.3	62.3	94	60.5	0	1	112	0.00	30.132 
03:25	62.1	62.1	62.1	94	60.3	0	0	---	0.00	30.132 
03:30	62.1	62.1	62.1	94	60.3	0	0	---	0.00	30.130 
03:35	62.0	62.0	62.0	94	60.2	0	1	112	0.00	30.130 
03:40	61.8	61.8	61.8	94	60.1	0	1	112	0.00	30.130 
03:45	61.8	61.8	61.8	94	60.1	0	1	112	0.00	30.125 
03:50	61.6	61.6	61.6	94	59.9	0	1	112	0.00	30.125 
03:55	61.6	61.6	61.6	94	59.9	0	1	112	0.00	30.125 
04:00	61.5	61.5	61.5	95	60.1	0	0	---	0.00	30.126 
04:05	61.3	61.3	61.3	95	59.9	0	1	112	0.00	30.126 
04:10	61.3	61.3	61.3	94	59.6	0	1	112	0.00	30.126 
04:15	61.0	61.0	61.0	94	59.3	0	2	112	0.00	30.124 
04:20	60.9	60.9	60.9	94	59.2	0	1	112	0.00	30.124 
04:25	60.9	60.9	60.9	94	59.2	0	0	---	0.00	30.124 
04:30	60.9	60.9	60.9	94	59.2	0	1	112	0.00	30.122 
04:35	60.7	60.7	60.7	94	59.0	0	1	112	0.00	30.122 
04:40	60.7	60.7	60.7	94	59.0	0	1	112	0.00	30.122 
04:45	60.7	60.7	60.7	94	59.0	0	1	112	0.00	30.119 
04:50	60.7	60.7	60.7	94	59.0	0	1	112	0.00	30.119 
04:55	60.7	60.7	60.7	94	59.0	0	1	112	0.00	30.119 
05:00	60.7	60.7	60.7	94	59.0	0	1	112	0.00	30.118 
05:05	60.7	60.7	60.7	94	59.0	0	1	112	0.00	30.118 
05:10	60.7	60.7	60.7	94	59.0	0	1	45	0.00	30.118 
05:15	60.7	60.7	60.7	93	58.7	0	1	45	0.00	30.118 
05:20	60.7	60.7	60.7	93	58.7	0	0	---	0.00	30.118 
05:25	60.7	60.7	60.7	93	58.7	0	1	45	0.00	30.118 
05:30	60.7	60.7	60.7	93	58.7	0	1	45	0.00	30.115 
05:35	60.7	60.7	60.7	93	58.7	0	0	---	0.00	30.115 
05:40	60.7	60.7	60.7	93	58.7	0	0	---	0.00	30.115 
05:45	60.9	60.9	60.9	92	58.6	0	0	---	0.00	30.108 
05:50	60.9	60.9	60.9	92	58.6	0	2	45	0.00	30.108 
05:55	60.9	60.9	60.9	92	58.6	0	1	45	0.00	30.108 
06:00	60.9	60.9	60.9	92	58.6	0	1	45	0.00	30.109 
06:05	60.9	60.9	60.9	92	58.6	0	1	45	0.00	30.109 
06:10	60.9	60.9	60.9	92	58.6	0	1	45	0.00	30.109 
06:15	60.9	60.9	60.9	92	58.6	0	1	45	0.00	30.108 
06:20	61.0	61.0	61.0	92	58.7	0	1	45	0.00	30.108 
06:25	61.0	61.0	61.0	91	58.4	0	1	45	0.00	30.108 
06:30	61.0	61.0	61.0	91	58.4	0	0	---	0.00	30.105 
06:35	61.0	61.0	61.0	91	58.4	0	0	---	0.00	30.105 
06:40	61.0	61.0	61.0	91	58.4	0	0	---	0.00	30.105 
06:45	61.0	61.0	61.0	91	58.4	0	0	---	0.00	30.104 
06:50	61.0	61.0	61.0	91	58.4	0	0	---	0.00	30.104 
06:55	61.0	61.0	61.0	91	58.4	0	1	45	0.00	30.104 
07:00	61.0	61.0	61.0	91	58.4	0	1	45	0.00	30.105 
07:05	61.2	61.2	61.2	91	58.5	0	1	45	0.00	30.105 
07:10	61.2	61.2	61.2	91	58.5	0	0	---	0.00	30.105 
07:15	61.3	61.3	61.3	91	58.6	0	2	45	0.00	30.112 
07:20	61.3	61.3	61.3	91	58.6	0	1	45	0.00	30.112 
07:25	61.5	61.5	61.5	91	58.8	0	1	45	0.00	30.112 
07:30	61.5	61.5	61.5	91	58.8	0	1	45	0.00	30.115 
07:35	61.5	61.5	61.5	91	58.8	0	2	45	0.00	30.115 
07:40	61.6	61.6	61.6	91	58.9	0	0	---	0.00	30.115 
07:45	61.6	61.6	61.6	91	58.9	0	0	---	0.00	30.112 
07:50	61.6	61.6	61.6	91	58.9	0	0	---	0.00	30.112 
07:55	61.6	61.6	61.6	91	58.9	0	1	45	0.00	30.112 
08:00	61.6	61.6	61.6	91	58.9	0	1	45	0.00	30.117 
08:05	61.6	61.6	61.6	91	58.9	0	0	---	0.00	30.117 
08:10	61.8	61.8	61.8	90	58.8	0	0	---	0.00	30.117 
08:15	61.8	61.8	61.8	90	58.8	0	0	---	0.00	30.119 
08:20	61.8	61.8	61.8	90	58.8	0	0	---	0.00	30.119 
08:25	61.8	61.8	61.8	91	59.1	0	1	45	0.00	30.119 
08:30	61.8	61.8	61.8	90	58.8	0	0	---	0.00	30.121 
08:35	62.0	62.0	62.0	90	59.0	0	2	45	0.00	30.121 
08:40	62.0	62.0	62.0	91	59.3	0	0	---	0.00	30.121 
08:45	62.1	62.1	62.1	91	59.4	0	0	---	0.00	30.121 
08:50	62.1	62.1	62.1	91	59.4	0	0	---	0.00	30.121 
08:55	62.3	62.3	62.3	91	59.6	0	1	45	0.00	30.121 
09:00	62.3	62.3	62.3	90	59.3	0	1	45	0.00	30.123 
09:05	62.4	62.4	62.4	91	59.7	0	0	---	0.00	30.123 
09:10	62.6	62.6	62.6	91	59.9	0	0	---	0.00	30.123 
09:15	62.7	62.7	62.7	91	60.0	0	1	45	0.00	30.123 
09:20	62.7	62.7	62.7	90	59.7	0	1	45	0.00	30.123 
09:25	62.9	62.9	62.9	90	59.9	0	1	45	0.00	30.123 
09:30	62.9	62.9	62.9	90	59.9	0	1	45	0.00	30.128 
09:35	63.1	63.1	63.1	90	60.1	0	1	45	0.00	30.128 
09:40	63.1	63.1	63.1	90	60.1	0	1	45	0.00	30.128 
09:45	63.2	63.2	63.2	89	59.9	0	3	45	0.00	30.131 
09:50	63.4	63.4	63.4	89	60.1	0	0	---	0.00	30.131 
09:55	63.5	63.5	63.5	90	60.5	0	0	---	0.00	30.131 
10:00	63.7	63.7	63.7	90	60.7	0	1	45	0.00	30.130 
10:05	63.9	63.9	63.9	89	60.6	0	1	45	0.00	30.130 
10:10	63.9	63.9	63.9	89	60.6	0	1	45	0.00	30.130 
10:15	64.0	64.0	64.0	89	60.7	0	1	45	0.00	30.129 
10:20	64.2	64.2	64.2	89	60.9	0	2	45	0.00	30.129 
10:25	64.3	64.3	64.3	89	61.0	0	3	45	0.00	30.129 
10:30	64.5	64.5	64.5	89	61.2	1	4	90	0.00	30.131 
10:35	64.7	64.7	64.7	88	61.1	0	3	90	0.00	30.131 
10:40	64.8	64.8	64.8	88	61.2	0	2	112	0.00	30.131 
10:45	64.8	64.8	64.8	88	61.2	0	3	135	0.00	30.132 
10:50	65.0	65.0	65.0	88	61.4	0	1	135	0.00	30.132 
10:55	65.0	65.0	65.0	88	61.4	0	1	135	0.00	30.132 
11:00	64.8	64.8	64.8	88	61.2	0	2	135	0.00	30.131 
11:05	64.7	64.7	64.7	88	61.1	0	1	135	0.00	30.131 
11:10	64.7	64.7	64.7	88	61.1	0	0	---	0.00	30.131 
11:15	64.7	64.7	64.7	88	61.1	0	1	135	0.00	30.132 
11:20	64.7	64.7	64.7	89	61.4	0	1	135	0.00	30.132 
11:25	64.7	64.7	64.7	89	61.4	0	0	---	0.00	30.132 
11:30	64.5	64.5	64.5	89	61.2	0	0	---	0.00	30.132 
11:35	64.5	64.5	64.5	90	61.5	0	0	---	0.00	30.132 
11:40	64.7	64.7	64.7	90	61.7	0	1	135	0.00	30.132 
11:45	64.7	64.7	64.7	90	61.7	0	2	135	0.00	30.130 
11:50	65.0	65.0	65.0	90	62.0	0	2	135	0.00	30.130 
11:55	65.2	65.2	65.2	89	61.9	1	3	135	0.00	30.130 
12:00	65.3	65.3	65.3	88	61.6	1	4	135	0.00	30.126 
12:05	65.6	65.6	65.6	89	62.3	1	3	112	0.00	30.126 
12:10	66.0	66.0	66.0	88	62.3	1	3	112	0.00	30.126 
12:15	66.0	66.0	66.0	87	62.0	1	3	112	0.00	30.127 
12:20	66.1	66.1	66.1	87	62.1	1	3	135	0.00	30.127 
12:25	66.1	66.1	66.1	86	61.8	1	4	135	0.00	30.127 
12:30	66.1	66.1	66.1	86	61.8	0	4	112	0.00	30.122 
12:35	66.3	66.3	66.3	87	62.3	0	2	112	0.00	30.122 
12:40	66.4	66.4	66.4	86	62.1	1	3	112	0.00	30.122 
12:45	66.4	66.4	66.4	86	62.1	0	2	112	0.00	30.119 
12:50	66.4	66.4	66.4	86	62.1	1	5	112	0.00	30.119 
12:55	66.3	66.3	66.3	84	61.3	1	4	112	0.00	30.119 
13:00	66.1	66.1	66.1	84	61.1	1	4	112	0.00	30.118 
13:05	66.0	66.0	66.0	84	61.0	0	3	112	0.00	30.118 
13:10	66.0	66.0	66.0	85	61.4	1	4	135	0.00	30.118 
13:15	66.0	66.0	66.0	85	61.4	0	2	135	0.00	30.116 
13:20	66.0	66.0	66.0	85	61.4	0	1	135	0.00	30.116 
13:25	66.1	66.1	66.1	84	61.1	1	5	135	0.00	30.116 
13:30	66.0	66.0	66.0	83	60.7	1	5	112	0.00	30.114 
13:35	66.0	66.0	66.0	83	60.7	0	2	112	0.00	30.114 
13:40	66.0	66.0	66.0	83	60.7	0	3	112	0.00	30.114 
13:45	66.0	66.0	66.0	84	61.0	0	1	90	0.00	30.110 
13:50	66.1	66.1	66.1	84	61.1	0	2	90	0.00	30.110 
13:55	66.4	66.4	66.4	85	61.7	0	2	90	0.00	30.110 
14:00	66.8	66.8	66.8	85	62.1	0	2	90	0.00	30.106 
14:05	67.1	67.1	67.1	84	62.1	0	4	90	0.00	30.106 
14:10	67.4	67.4	67.4	84	62.4	0	3	45	0.00	30.106 
14:15	67.8	67.8	67.8	84	62.8	0	1	45	0.00	30.106 
14:20	67.8	67.8	67.8	82	62.1	0	3	68	0.00	30.106 
14:25	67.8	67.8	67.8	82	62.1	0	2	68	0.00	30.106 
14:30	67.8	67.8	67.8	81	61.7	0	1	68	0.00	30.105 
14:35	67.8	67.8	67.8	80	61.4	0	2	68	0.00	30.105 
14:40	67.8	67.8	67.8	80	61.4	0	1	68	0.00	30.105 
14:45	67.6	67.6	67.6	79	60.8	1	3	90	0.00	30.105 
14:50	67.4	67.4	67.4	81	61.4	0	3	112	0.00	30.105 
14:55	67.1	67.1	67.1	81	61.1	0	3	112	0.00	30.105 
15:00	66.9	66.9	66.9	83	61.6	0	2	112	0.00	30.103 
15:05	66.8	66.8	66.8	83	61.5	0	1	112	0.00	30.103 
15:10	66.9	66.9	66.9	84	61.9	0	1	112	0.00	30.103 
15:15	66.9	66.9	66.9	83	61.6	0	3	112	0.00	30.103 
15:20	66.8	66.8	66.8	83	61.5	0	2	112	0.00	30.103 
15:25	66.8	66.8	66.8	84	61.8	0	1	112	0.00	30.103 
15:30	66.6	66.6	66.6	83	61.3	0	3	90	0.00	30.098 
15:35	66.4	66.4	66.4	84	61.4	0	2	90	0.00	30.098 
15:40	66.3	66.3	66.3	83	61.0	0	3	112	0.00	30.098 
15:45	66.4	66.4	66.4	84	61.4	0	3	112	0.00	30.091 
15:50	66.4	66.4	66.4	84	61.4	0	2	112	0.00	30.091 
15:55	66.3	66.3	66.3	84	61.3	0	4	292	0.00	30.091 
16:00	66.3	66.3	66.3	84	61.3	0	1	158	0.00	30.091 
16:05	66.1	66.1	66.1	84	61.1	0	1	158	0.00	30.091 
16:10	66.1	66.1	66.1	85	61.5	0	1	158	0.00	30.091 
16:15	66.1	66.1	66.1	85	61.5	0	3	135	0.00	30.090 
16:20	66.1	66.1	66.1	85	61.5	0	2	135	0.00	30.090 
16:25	66.1	66.1	66.1	85	61.5	0	1	135	0.00	30.090 
16:30	66.3	66.3	66.3	86	62.0	0	1	135	0.00	30.086 
16:35	66.3	66.3	66.3	85	61.6	0	1	135	0.00	30.086 
16:40	66.6	66.6	66.6	86	62.3	0	1	135	0.00	30.086 
16:45	66.8	66.8	66.8	85	62.1	0	4	135	0.00	30.075 
16:50	66.9	66.9	66.9	84	61.9	0	3	135	0.00	30.075 
16:55	67.3	67.3	67.3	84	62.3	0	4	180	0.00	30.075 
17:00	67.4	67.4	67.4	84	62.4	0	2	158	0.00	30.073 
17:05	67.6	67.6	67.6	83	62.2	0	2	158	0.00	30.073 
17:10	67.8	67.8	67.8	83	62.4	0	3	158	0.00	30.073 
17:15	68.1	68.1	68.1	83	62.7	0	3	112	0.00	30.069 
17:20	68.6	68.6	68.6	83	63.2	0	1	112	0.00	30.069 
17:25	68.6	68.6	68.6	81	62.5	0	1	112	0.00	30.069 
17:30	68.8	68.8	68.8	83	63.4	0	2	112	0.00	30.062 
17:35	69.1	69.1	69.1	81	63.0	1	4	112	0.00	30.062 
17:40	69.3	69.3	69.3	81	63.2	0	2	112	0.00	30.062 
17:45	69.3	69.3	69.3	81	63.2	0	1	112	0.00	30.059 
17:50	69.3	69.3	69.3	81	63.2	0	2	135	0.00	30.059 
17:55	69.3	69.3	69.3	81	63.2	0	1	158	0.00	30.059 
18:00	69.4	69.4	69.4	81	63.3	0	2	0	0.00	30.058 
18:05	69.1	69.1	69.1	81	63.0	0	2	0	0.00	30.058 
18:10	68.9	68.9	68.9	82	63.2	0	1	0	0.00	30.058 
18:15	68.6	68.6	68.6	81	62.5	0	1	0	0.00	30.061 
18:20	68.3	68.3	68.3	83	62.9	0	1	0	0.00	30.061 
18:25	68.3	68.3	68.3	84	63.3	0	1	0	0.00	30.061 
18:30	68.3	68.3	68.3	83	62.9	0	1	0	0.00	30.063 
18:35	68.3	68.3	68.3	83	62.9	0	3	45	0.00	30.063 
18:40	68.6	68.6	68.6	84	63.6	0	1	45	0.00	30.063 
18:45	68.6	68.6	68.6	83	63.2	0	1	45	0.00	30.061 
18:50	68.6	68.6	68.6	82	62.9	0	1	45	0.00	30.061 
18:55	68.6	68.6	68.6	83	63.2	0	1	45	0.00	30.061 
19:00	68.6	68.6	68.6	83	63.2	0	0	---	0.00	30.063 
19:05	68.4	68.4	68.4	83	63.0	0	1	45	0.00	30.063 
19:10	68.3	68.3	68.3	83	62.9	0	2	45	0.00	30.063 
19:15	68.1	68.1	68.1	84	63.1	0	1	45	0.00	30.059 
19:20	67.9	67.9	67.9	83	62.5	0	2	45	0.00	30.059 
19:25	67.8	67.8	67.8	84	62.8	0	2	45	0.00	30.059 
19:30	67.6	67.6	67.6	83	62.2	0	3	45	0.00	30.058 
19:35	67.4	67.4	67.4	82	61.7	1	4	90	0.00	30.058 
19:40	67.4	67.4	67.4	82	61.7	0	2	90	0.00	30.058 
19:45	67.3	67.3	67.3	83	62.0	0	1	90	0.00	30.062 
19:50	67.3	67.3	67.3	83	62.0	0	1	90	0.00	30.062 
19:55	67.1	67.1	67.1	83	61.8	0	0	---	0.00	30.062 
20:00	66.9	66.9	66.9	83	61.6	0	1	90	0.00	30.060 
20:05	66.9	66.9	66.9	84	61.9	0	1	90	0.00	30.060 
20:10	66.8	66.8	66.8	84	61.8	0	1	90	0.00	30.060 
20:15	66.8	66.8	66.8	84	61.8	0	2	90	0.00	30.060 
20:20	66.6	66.6	66.6	84	61.6	0	1	90	0.00	30.060 
20:25	66.4	66.4	66.4	84	61.4	0	3	90	0.00	30.060 
20:30	66.4	66.4	66.4	85	61.7	0	1	90	0.00	30.060 
20:35	66.4	66.4	66.4	85	61.7	0	1	90	0.00	30.060 
20:40	66.3	66.3	66.3	85	61.6	0	0	---	0.00	30.060 
20:45	66.3	66.3	66.3	85	61.6	0	0	---	0.00	30.063 
20:50	66.1	66.1	66.1	86	61.8	0	0	---	0.00	30.063 
20:55	66.1	66.1	66.1	86	61.8	0	1	90	0.00	30.063 
21:00	66.1	66.1	66.1	87	62.1	0	0	---	0.00	30.064 
21:05	66.0	66.0	66.0	87	62.0	0	0	---	0.00	30.064 
21:10	66.0	66.0	66.0	87	62.0	0	0	---	0.00	30.064 
21:15	66.0	66.0	66.0	88	62.3	0	1	90	0.00	30.061 
21:20	65.8	65.8	65.8	88	62.1	0	0	---	0.00	30.061 
21:25	65.8	65.8	65.8	88	62.1	0	0	---	0.00	30.061 
21:30	65.6	65.6	65.6	88	61.9	0	0	---	0.00	30.061 
21:35	65.6	65.6	65.6	88	61.9	0	1	90	0.00	30.061 
21:40	65.5	65.5	65.5	89	62.2	0	0	---	0.00	30.061 
21:45	65.5	65.5	65.5	89	62.2	0	0	---	0.00	30.065 
21:50	65.5	65.5	65.5	90	62.5	0	0	---	0.00	30.065 
21:55	65.5	65.5	65.5	90	62.5	0	1	90	0.00	30.065 
22:00	65.3	65.3	65.3	90	62.3	0	0	---	0.00	30.065 
22:05	65.3	65.3	65.3	91	62.6	0	0	---	0.00	30.065 
22:10	65.2	65.2	65.2	91	62.5	0	0	---	0.00	30.065 
22:15	65.2	65.2	65.2	91	62.5	0	0	---	0.00	30.065 
22:20	65.0	65.0	65.0	92	62.6	0	0	---	0.00	30.065 
22:25	65.0	65.0	65.0	92	62.6	0	0	---	0.00	30.065 
22:30	64.8	64.8	64.8	92	62.4	0	0	---	0.00	30.062 
22:35	64.8	64.8	64.8	92	62.4	0	0	---	0.00	30.062 
22:40	64.8	64.8	64.8	92	62.4	0	0	---	0.00	30.062 
22:45	64.8	64.8	64.8	92	62.4	0	0	---	0.00	30.067 
22:50	64.8	64.8	64.8	92	62.4	0	0	---	0.00	30.067 
22:55	64.7	64.7	64.7	92	62.3	0	0	---	0.00	30.067 
23:00	64.7	64.7	64.7	93	62.6	0	0	---	0.00	30.061 
23:05	64.7	64.7	64.7	93	62.6	0	0	---	0.00	30.061 
23:10	64.7	64.7	64.7	93	62.6	0	0	---	0.00	30.061 
23:15	64.7	64.7	64.7	93	62.6	0	0	---	0.00	30.059 
23:20	64.5	64.5	64.5	93	62.4	0	0	---	0.00	30.059 
23:25	64.5	64.5	64.5	93	62.4	0	0	---	0.00	30.059 
23:30	64.5	64.5	64.5	93	62.4	0	0	---	0.00	30.059 
23:35	64.5	64.5	64.5	93	62.4	0	0	---	0.00	30.059 
23:40	64.3	64.3	64.3	93	62.2	0	0	---	0.00	30.059 
23:45	64.2	64.2	64.2	93	62.1	0	0	---	0.00	30.057 
23:50	64.0	64.0	64.0	93	61.9	0	0	---	0.00	30.057 
23:55	63.9	63.9	63.9	93	61.8	0	0	---	0.00	30.057 

CoCoRaHS
IN-AL-39
A2 Web Hosting
Creative Commons License
GoDaddy
search engine by freefind advanced

loaded 2018-11-17 06:35:55 • last modified 2010-11-18 10:43:29
Privacy PolicyDisclaimer
• wx.awcolley.com is powered by PmWiki v.2002016 •
• all content (unless otherwise noted) © 2018 A W Colley